sensor_id;sensor_type;location;lat;lon;timestamp;temperature;humidity
13976;DHT22;7062;49.792;9.946;2024-02-04T00:00:43;9.20;99.90
13976;DHT22;7062;49.792;9.946;2024-02-04T00:03:09;9.30;99.90
13976;DHT22;7062;49.792;9.946;2024-02-04T00:05:35;9.30;99.90
13976;DHT22;7062;49.792;9.946;2024-02-04T00:08:01;9.30;99.90
13976;DHT22;7062;49.792;9.946;2024-02-04T00:10:27;9.30;99.90
13976;DHT22;7062;49.792;9.946;2024-02-04T00:12:53;9.30;99.90
13976;DHT22;7062;49.792;9.946;2024-02-04T00:15:19;9.30;99.90
13976;DHT22;7062;49.792;9.946;2024-02-04T00:17:45;9.30;99.90
13976;DHT22;7062;49.792;9.946;2024-02-04T00:20:10;9.30;99.90
13976;DHT22;7062;49.792;9.946;2024-02-04T00:22:36;9.30;99.90
13976;DHT22;7062;49.792;9.946;2024-02-04T00:25:02;9.30;99.90
13976;DHT22;7062;49.792;9.946;2024-02-04T00:27:31;9.40;99.90
13976;DHT22;7062;49.792;9.946;2024-02-04T00:29:57;9.30;99.90
13976;DHT22;7062;49.792;9.946;2024-02-04T00:32:24;9.30;99.90
13976;DHT22;7062;49.792;9.946;2024-02-04T00:34:50;9.40;99.90
13976;DHT22;7062;49.792;9.946;2024-02-04T00:37:15;9.40;99.90
13976;DHT22;7062;49.792;9.946;2024-02-04T00:39:41;9.40;99.90
13976;DHT22;7062;49.792;9.946;2024-02-04T00:42:07;9.30;99.90
13976;DHT22;7062;49.792;9.946;2024-02-04T00:44:32;9.40;99.90
13976;DHT22;7062;49.792;9.946;2024-02-04T00:46:58;9.40;99.90
13976;DHT22;7062;49.792;9.946;2024-02-04T00:49:24;9.40;99.90
13976;DHT22;7062;49.792;9.946;2024-02-04T00:51:51;9.40;99.90
13976;DHT22;7062;49.792;9.946;2024-02-04T00:54:17;9.40;99.90
13976;DHT22;7062;49.792;9.946;2024-02-04T00:56:43;9.40;99.90
13976;DHT22;7062;49.792;9.946;2024-02-04T00:59:09;9.40;99.90
13976;DHT22;7062;49.792;9.946;2024-02-04T01:01:35;9.40;99.90
13976;DHT22;7062;49.792;9.946;2024-02-04T01:04:00;9.40;99.90
13976;DHT22;7062;49.792;9.946;2024-02-04T01:06:26;9.40;99.90
13976;DHT22;7062;49.792;9.946;2024-02-04T01:08:53;9.40;99.90
13976;DHT22;7062;49.792;9.946;2024-02-04T01:11:19;9.40;99.90
13976;DHT22;7062;49.792;9.946;2024-02-04T01:13:44;9.40;99.90
13976;DHT22;7062;49.792;9.946;2024-02-04T01:16:10;9.40;99.90
13976;DHT22;7062;49.792;9.946;2024-02-04T01:18:36;9.40;99.90
13976;DHT22;7062;49.792;9.946;2024-02-04T01:21:01;9.40;99.90
13976;DHT22;7062;49.792;9.946;2024-02-04T01:23:27;9.40;99.90
13976;DHT22;7062;49.792;9.946;2024-02-04T01:25:53;9.40;99.90
13976;DHT22;7062;49.792;9.946;2024-02-04T01:28:18;9.40;99.90
13976;DHT22;7062;49.792;9.946;2024-02-04T01:30:44;9.40;99.90
13976;DHT22;7062;49.792;9.946;2024-02-04T01:33:09;9.40;99.90
13976;DHT22;7062;49.792;9.946;2024-02-04T01:35:35;9.40;99.90
13976;DHT22;7062;49.792;9.946;2024-02-04T01:38:01;9.40;99.90
13976;DHT22;7062;49.792;9.946;2024-02-04T01:40:26;9.40;99.90
13976;DHT22;7062;49.792;9.946;2024-02-04T01:42:52;9.40;99.90
13976;DHT22;7062;49.792;9.946;2024-02-04T01:45:18;9.40;99.90
13976;DHT22;7062;49.792;9.946;2024-02-04T01:47:43;9.50;99.90
13976;DHT22;7062;49.792;9.946;2024-02-04T01:50:09;9.50;99.90
13976;DHT22;7062;49.792;9.946;2024-02-04T01:52:38;9.40;99.90
13976;DHT22;7062;49.792;9.946;2024-02-04T01:55:05;9.50;99.90
13976;DHT22;7062;49.792;9.946;2024-02-04T01:57:32;9.50;99.90
13976;DHT22;7062;49.792;9.946;2024-02-04T01:59:58;9.40;99.90
13976;DHT22;7062;49.792;9.946;2024-02-04T02:02:25;9.40;99.90
13976;DHT22;7062;49.792;9.946;2024-02-04T02:04:51;9.40;99.90
13976;DHT22;7062;49.792;9.946;2024-02-04T02:07:18;9.40;99.90
13976;DHT22;7062;49.792;9.946;2024-02-04T02:09:47;9.40;99.90
13976;DHT22;7062;49.792;9.946;2024-02-04T02:14:53;9.50;99.90
13976;DHT22;7062;49.792;9.946;2024-02-04T02:17:27;9.70;99.90
13976;DHT22;7062;49.792;9.946;2024-02-04T02:21:11;9.50;99.90
13976;DHT22;7062;49.792;9.946;2024-02-04T02:23:18;9.50;99.90
13976;DHT22;7062;49.792;9.946;2024-02-04T02:25:46;9.50;99.90
13976;DHT22;7062;49.792;9.946;2024-02-04T02:28:12;9.50;99.90
13976;DHT22;7062;49.792;9.946;2024-02-04T02:30:37;9.60;99.90
13976;DHT22;7062;49.792;9.946;2024-02-04T02:33:04;9.60;99.90
13976;DHT22;7062;49.792;9.946;2024-02-04T02:35:30;9.60;99.90
13976;DHT22;7062;49.792;9.946;2024-02-04T02:40:50;9.60;99.90
13976;DHT22;7062;49.792;9.946;2024-02-04T02:43:18;9.60;99.90
13976;DHT22;7062;49.792;9.946;2024-02-04T02:45:44;9.60;99.90
13976;DHT22;7062;49.792;9.946;2024-02-04T02:48:11;9.60;99.90
13976;DHT22;7062;49.792;9.946;2024-02-04T02:50:38;9.60;99.90
13976;DHT22;7062;49.792;9.946;2024-02-04T02:53:04;9.60;99.90
13976;DHT22;7062;49.792;9.946;2024-02-04T02:55:30;9.60;99.90
13976;DHT22;7062;49.792;9.946;2024-02-04T02:57:55;9.70;99.90
13976;DHT22;7062;49.792;9.946;2024-02-04T03:00:21;9.60;99.90
13976;DHT22;7062;49.792;9.946;2024-02-04T03:02:47;9.60;99.90
13976;DHT22;7062;49.792;9.946;2024-02-04T03:05:15;9.60;99.90
13976;DHT22;7062;49.792;9.946;2024-02-04T03:07:40;9.60;99.90
13976;DHT22;7062;49.792;9.946;2024-02-04T03:10:06;9.50;99.90
13976;DHT22;7062;49.792;9.946;2024-02-04T03:12:32;9.50;99.90
13976;DHT22;7062;49.792;9.946;2024-02-04T03:14:58;9.50;99.90
13976;DHT22;7062;49.792;9.946;2024-02-04T03:17:23;9.50;99.90
13976;DHT22;7062;49.792;9.946;2024-02-04T03:19:49;9.50;99.90
13976;DHT22;7062;49.792;9.946;2024-02-04T03:22:17;9.60;99.90
13976;DHT22;7062;49.792;9.946;2024-02-04T03:24:43;9.60;99.90
13976;DHT22;7062;49.792;9.946;2024-02-04T03:27:09;9.50;99.90
13976;DHT22;7062;49.792;9.946;2024-02-04T03:29:35;9.50;99.90
13976;DHT22;7062;49.792;9.946;2024-02-04T03:32:01;9.60;99.90
13976;DHT22;7062;49.792;9.946;2024-02-04T03:34:26;9.50;99.90
13976;DHT22;7062;49.792;9.946;2024-02-04T03:36:52;9.60;99.90
13976;DHT22;7062;49.792;9.946;2024-02-04T03:39:18;9.50;99.90
13976;DHT22;7062;49.792;9.946;2024-02-04T03:41:43;9.50;99.90
13976;DHT22;7062;49.792;9.946;2024-02-04T03:44:09;9.40;99.90
13976;DHT22;7062;49.792;9.946;2024-02-04T03:46:34;9.40;99.90
13976;DHT22;7062;49.792;9.946;2024-02-04T03:49:00;9.40;99.90
13976;DHT22;7062;49.792;9.946;2024-02-04T03:51:26;9.50;99.90
13976;DHT22;7062;49.792;9.946;2024-02-04T03:53:51;9.50;99.90
13976;DHT22;7062;49.792;9.946;2024-02-04T03:56:17;9.50;99.90
13976;DHT22;7062;49.792;9.946;2024-02-04T03:58:43;9.50;99.90
13976;DHT22;7062;49.792;9.946;2024-02-04T04:01:12;9.50;99.90
13976;DHT22;7062;49.792;9.946;2024-02-04T04:03:41;9.50;99.90
13976;DHT22;7062;49.792;9.946;2024-02-04T04:06:08;9.50;99.90
13976;DHT22;7062;49.792;9.946;2024-02-04T04:08:34;9.50;99.90
13976;DHT22;7062;49.792;9.946;2024-02-04T04:11:00;9.40;99.90
13976;DHT22;7062;49.792;9.946;2024-02-04T04:13:26;9.40;99.90
13976;DHT22;7062;49.792;9.946;2024-02-04T04:15:51;9.40;99.90
13976;DHT22;7062;49.792;9.946;2024-02-04T04:18:17;9.40;99.90
13976;DHT22;7062;49.792;9.946;2024-02-04T04:20:43;9.40;99.90
13976;DHT22;7062;49.792;9.946;2024-02-04T04:23:08;9.30;99.90
13976;DHT22;7062;49.792;9.946;2024-02-04T04:25:34;9.30;99.90
13976;DHT22;7062;49.792;9.946;2024-02-04T04:28:00;9.20;99.90
13976;DHT22;7062;49.792;9.946;2024-02-04T04:30:25;10.70;99.90
13976;DHT22;7062;49.792;9.946;2024-02-04T04:32:51;9.20;99.90
13976;DHT22;7062;49.792;9.946;2024-02-04T04:35:17;9.20;99.90
13976;DHT22;7062;49.792;9.946;2024-02-04T04:37:42;9.20;99.90
13976;DHT22;7062;49.792;9.946;2024-02-04T04:40:09;9.10;99.90
13976;DHT22;7062;49.792;9.946;2024-02-04T04:42:34;9.10;99.90
13976;DHT22;7062;49.792;9.946;2024-02-04T04:45:00;9.00;99.90
13976;DHT22;7062;49.792;9.946;2024-02-04T04:47:26;9.00;99.90
13976;DHT22;7062;49.792;9.946;2024-02-04T04:49:51;8.90;99.90
13976;DHT22;7062;49.792;9.946;2024-02-04T04:52:17;8.90;99.90
13976;DHT22;7062;49.792;9.946;2024-02-04T04:54:43;8.80;99.90
13976;DHT22;7062;49.792;9.946;2024-02-04T04:57:08;8.90;99.90
13976;DHT22;7062;49.792;9.946;2024-02-04T04:59:34;8.80;99.90
13976;DHT22;7062;49.792;9.946;2024-02-04T05:02:01;8.90;99.90
13976;DHT22;7062;49.792;9.946;2024-02-04T05:04:27;8.80;99.90
13976;DHT22;7062;49.792;9.946;2024-02-04T05:06:52;8.80;99.90
13976;DHT22;7062;49.792;9.946;2024-02-04T05:09:18;8.80;99.90
13976;DHT22;7062;49.792;9.946;2024-02-04T05:11:44;8.80;99.90
13976;DHT22;7062;49.792;9.946;2024-02-04T05:14:09;8.80;99.90
13976;DHT22;7062;49.792;9.946;2024-02-04T05:16:35;8.80;99.90
13976;DHT22;7062;49.792;9.946;2024-02-04T05:19:02;8.70;99.90
13976;DHT22;7062;49.792;9.946;2024-02-04T05:21:28;8.80;99.90
13976;DHT22;7062;49.792;9.946;2024-02-04T05:23:54;8.70;99.90
13976;DHT22;7062;49.792;9.946;2024-02-04T05:26:20;8.70;99.90
13976;DHT22;7062;49.792;9.946;2024-02-04T05:28:46;8.80;99.90
13976;DHT22;7062;49.792;9.946;2024-02-04T05:31:12;8.70;99.90
13976;DHT22;7062;49.792;9.946;2024-02-04T05:33:37;8.70;99.90
13976;DHT22;7062;49.792;9.946;2024-02-04T05:36:03;8.70;99.90
13976;DHT22;7062;49.792;9.946;2024-02-04T05:38:30;8.70;99.90
13976;DHT22;7062;49.792;9.946;2024-02-04T05:40:55;8.70;99.90
13976;DHT22;7062;49.792;9.946;2024-02-04T05:43:21;8.70;99.90
13976;DHT22;7062;49.792;9.946;2024-02-04T05:45:46;8.60;99.90
13976;DHT22;7062;49.792;9.946;2024-02-04T05:48:12;8.70;99.90
13976;DHT22;7062;49.792;9.946;2024-02-04T05:50:39;8.60;99.90
13976;DHT22;7062;49.792;9.946;2024-02-04T05:53:04;8.60;99.90
13976;DHT22;7062;49.792;9.946;2024-02-04T05:55:30;8.60;99.90
13976;DHT22;7062;49.792;9.946;2024-02-04T05:57:56;8.60;99.90
13976;DHT22;7062;49.792;9.946;2024-02-04T06:00:23;8.60;99.90
13976;DHT22;7062;49.792;9.946;2024-02-04T06:02:49;8.60;99.90
13976;DHT22;7062;49.792;9.946;2024-02-04T06:05:15;8.60;99.90
13976;DHT22;7062;49.792;9.946;2024-02-04T06:07:42;8.60;99.90
13976;DHT22;7062;49.792;9.946;2024-02-04T06:10:09;8.50;99.90
13976;DHT22;7062;49.792;9.946;2024-02-04T06:12:35;8.50;99.90
13976;DHT22;7062;49.792;9.946;2024-02-04T06:15:01;8.50;99.90
13976;DHT22;7062;49.792;9.946;2024-02-04T06:17:26;8.60;99.90
13976;DHT22;7062;49.792;9.946;2024-02-04T06:19:52;8.60;99.90
13976;DHT22;7062;49.792;9.946;2024-02-04T06:22:18;8.60;99.90
13976;DHT22;7062;49.792;9.946;2024-02-04T06:24:43;8.60;99.90
13976;DHT22;7062;49.792;9.946;2024-02-04T06:27:11;8.60;99.90
13976;DHT22;7062;49.792;9.946;2024-02-04T06:29:36;8.60;99.90
13976;DHT22;7062;49.792;9.946;2024-02-04T06:32:03;8.60;99.90
13976;DHT22;7062;49.792;9.946;2024-02-04T06:34:28;8.60;99.90
13976;DHT22;7062;49.792;9.946;2024-02-04T06:36:54;8.50;99.90
13976;DHT22;7062;49.792;9.946;2024-02-04T06:39:20;8.50;99.90
13976;DHT22;7062;49.792;9.946;2024-02-04T06:41:47;8.50;99.90
13976;DHT22;7062;49.792;9.946;2024-02-04T06:44:13;8.50;99.90
13976;DHT22;7062;49.792;9.946;2024-02-04T06:46:38;8.50;99.90
13976;DHT22;7062;49.792;9.946;2024-02-04T06:49:04;8.60;99.90
13976;DHT22;7062;49.792;9.946;2024-02-04T06:51:30;8.50;99.90
13976;DHT22;7062;49.792;9.946;2024-02-04T06:53:55;8.50;99.90
13976;DHT22;7062;49.792;9.946;2024-02-04T06:56:21;8.60;99.90
13976;DHT22;7062;49.792;9.946;2024-02-04T06:58:47;8.50;99.90
13976;DHT22;7062;49.792;9.946;2024-02-04T07:01:13;8.50;99.90
13976;DHT22;7062;49.792;9.946;2024-02-04T07:03:38;8.50;99.90
13976;DHT22;7062;49.792;9.946;2024-02-04T07:06:04;8.50;99.90
13976;DHT22;7062;49.792;9.946;2024-02-04T07:08:30;8.50;99.90
13976;DHT22;7062;49.792;9.946;2024-02-04T07:10:56;8.50;99.90
13976;DHT22;7062;49.792;9.946;2024-02-04T07:13:21;8.50;99.90
13976;DHT22;7062;49.792;9.946;2024-02-04T07:15:47;8.50;99.90
13976;DHT22;7062;49.792;9.946;2024-02-04T07:18:13;8.50;99.90
13976;DHT22;7062;49.792;9.946;2024-02-04T07:20:38;8.50;99.90
13976;DHT22;7062;49.792;9.946;2024-02-04T07:23:05;8.50;99.90
13976;DHT22;7062;49.792;9.946;2024-02-04T07:25:31;8.50;99.90
13976;DHT22;7062;49.792;9.946;2024-02-04T07:27:58;8.50;99.90
13976;DHT22;7062;49.792;9.946;2024-02-04T07:30:24;8.50;99.90
13976;DHT22;7062;49.792;9.946;2024-02-04T07:32:50;8.50;99.90
13976;DHT22;7062;49.792;9.946;2024-02-04T07:35:16;8.50;99.90
13976;DHT22;7062;49.792;9.946;2024-02-04T07:37:42;8.50;99.90
13976;DHT22;7062;49.792;9.946;2024-02-04T07:40:08;8.60;99.90
13976;DHT22;7062;49.792;9.946;2024-02-04T07:42:33;8.50;99.90
13976;DHT22;7062;49.792;9.946;2024-02-04T07:44:59;8.50;99.90
13976;DHT22;7062;49.792;9.946;2024-02-04T07:47:25;8.60;99.90
13976;DHT22;7062;49.792;9.946;2024-02-04T07:49:50;8.60;99.90
13976;DHT22;7062;49.792;9.946;2024-02-04T07:52:16;8.60;99.90
13976;DHT22;7062;49.792;9.946;2024-02-04T07:54:42;8.60;99.90
13976;DHT22;7062;49.792;9.946;2024-02-04T07:57:11;8.60;99.90
13976;DHT22;7062;49.792;9.946;2024-02-04T07:59:37;8.50;99.90
13976;DHT22;7062;49.792;9.946;2024-02-04T08:02:03;8.60;99.90
13976;DHT22;7062;49.792;9.946;2024-02-04T08:04:28;8.60;99.90
13976;DHT22;7062;49.792;9.946;2024-02-04T08:06:54;8.50;99.90
13976;DHT22;7062;49.792;9.946;2024-02-04T08:09:20;8.50;99.90
13976;DHT22;7062;49.792;9.946;2024-02-04T08:11:46;8.50;99.90
13976;DHT22;7062;49.792;9.946;2024-02-04T08:14:12;8.50;99.90
13976;DHT22;7062;49.792;9.946;2024-02-04T08:16:40;8.50;99.90
13976;DHT22;7062;49.792;9.946;2024-02-04T08:19:06;8.50;99.90
13976;DHT22;7062;49.792;9.946;2024-02-04T08:21:32;8.50;99.90
13976;DHT22;7062;49.792;9.946;2024-02-04T08:23:58;8.50;99.90
13976;DHT22;7062;49.792;9.946;2024-02-04T08:26:24;8.60;99.90
13976;DHT22;7062;49.792;9.946;2024-02-04T08:28:50;8.50;99.90
13976;DHT22;7062;49.792;9.946;2024-02-04T08:31:16;8.60;99.90
13976;DHT22;7062;49.792;9.946;2024-02-04T08:33:42;8.60;99.90
13976;DHT22;7062;49.792;9.946;2024-02-04T08:36:08;8.60;99.90
13976;DHT22;7062;49.792;9.946;2024-02-04T08:38:36;8.60;99.90
13976;DHT22;7062;49.792;9.946;2024-02-04T08:41:03;8.60;99.90
13976;DHT22;7062;49.792;9.946;2024-02-04T08:43:29;8.60;99.90
13976;DHT22;7062;49.792;9.946;2024-02-04T08:45:55;8.60;99.90
13976;DHT22;7062;49.792;9.946;2024-02-04T08:48:21;8.70;99.90
13976;DHT22;7062;49.792;9.946;2024-02-04T08:50:46;9.80;99.90
13976;DHT22;7062;49.792;9.946;2024-02-04T08:53:12;8.80;99.90
13976;DHT22;7062;49.792;9.946;2024-02-04T08:55:38;8.80;99.90
13976;DHT22;7062;49.792;9.946;2024-02-04T08:58:03;8.90;99.90
13976;DHT22;7062;49.792;9.946;2024-02-04T09:00:29;8.90;99.90
13976;DHT22;7062;49.792;9.946;2024-02-04T09:02:55;9.00;99.90
13976;DHT22;7062;49.792;9.946;2024-02-04T09:05:21;8.90;99.90
13976;DHT22;7062;49.792;9.946;2024-02-04T09:07:47;8.90;99.90
13976;DHT22;7062;49.792;9.946;2024-02-04T09:10:12;9.00;99.90
13976;DHT22;7062;49.792;9.946;2024-02-04T09:12:38;9.00;99.90
13976;DHT22;7062;49.792;9.946;2024-02-04T09:15:05;9.00;99.90
13976;DHT22;7062;49.792;9.946;2024-02-04T09:17:31;9.00;99.90
13976;DHT22;7062;49.792;9.946;2024-02-04T09:19:59;9.00;99.90
13976;DHT22;7062;49.792;9.946;2024-02-04T09:22:25;8.90;99.90
13976;DHT22;7062;49.792;9.946;2024-02-04T09:24:51;8.90;99.90
13976;DHT22;7062;49.792;9.946;2024-02-04T09:27:16;9.00;99.90
13976;DHT22;7062;49.792;9.946;2024-02-04T09:29:42;9.00;99.90
13976;DHT22;7062;49.792;9.946;2024-02-04T09:32:08;9.00;99.90
13976;DHT22;7062;49.792;9.946;2024-02-04T09:34:33;9.00;99.90
13976;DHT22;7062;49.792;9.946;2024-02-04T09:36:59;9.10;99.90
13976;DHT22;7062;49.792;9.946;2024-02-04T09:39:26;9.10;99.90
13976;DHT22;7062;49.792;9.946;2024-02-04T09:41:51;9.10;99.90
13976;DHT22;7062;49.792;9.946;2024-02-04T09:44:18;9.20;99.90
13976;DHT22;7062;49.792;9.946;2024-02-04T09:46:44;9.20;99.90
13976;DHT22;7062;49.792;9.946;2024-02-04T09:49:09;9.20;99.90
13976;DHT22;7062;49.792;9.946;2024-02-04T09:51:36;9.30;99.90
13976;DHT22;7062;49.792;9.946;2024-02-04T09:54:05;9.40;99.90
13976;DHT22;7062;49.792;9.946;2024-02-04T09:56:35;9.40;99.90
13976;DHT22;7062;49.792;9.946;2024-02-04T09:59:02;9.50;99.90
13976;DHT22;7062;49.792;9.946;2024-02-04T10:01:28;9.40;99.90
13976;DHT22;7062;49.792;9.946;2024-02-04T10:03:55;9.40;99.90
13976;DHT22;7062;49.792;9.946;2024-02-04T10:06:21;9.40;99.90
13976;DHT22;7062;49.792;9.946;2024-02-04T10:08:46;9.50;99.90
13976;DHT22;7062;49.792;9.946;2024-02-04T10:11:13;9.50;99.90
13976;DHT22;7062;49.792;9.946;2024-02-04T10:13:46;9.60;99.90
13976;DHT22;7062;49.792;9.946;2024-02-04T10:16:16;9.60;99.90
13976;DHT22;7062;49.792;9.946;2024-02-04T10:18:46;9.60;99.90
13976;DHT22;7062;49.792;9.946;2024-02-04T10:21:16;9.60;99.90
13976;DHT22;7062;49.792;9.946;2024-02-04T10:23:46;9.60;99.90
13976;DHT22;7062;49.792;9.946;2024-02-04T10:26:12;9.60;99.90
13976;DHT22;7062;49.792;9.946;2024-02-04T10:28:38;9.60;99.90
13976;DHT22;7062;49.792;9.946;2024-02-04T10:31:09;9.60;99.90
13976;DHT22;7062;49.792;9.946;2024-02-04T10:33:35;9.60;99.90
13976;DHT22;7062;49.792;9.946;2024-02-04T10:36:01;9.60;99.90
13976;DHT22;7062;49.792;9.946;2024-02-04T10:38:27;9.60;99.90
13976;DHT22;7062;49.792;9.946;2024-02-04T10:40:54;9.60;99.90
13976;DHT22;7062;49.792;9.946;2024-02-04T10:43:21;9.60;99.90
13976;DHT22;7062;49.792;9.946;2024-02-04T10:45:48;9.60;99.90
13976;DHT22;7062;49.792;9.946;2024-02-04T10:48:19;9.50;99.90
13976;DHT22;7062;49.792;9.946;2024-02-04T10:50:46;9.50;99.90
13976;DHT22;7062;49.792;9.946;2024-02-04T10:53:14;9.60;99.90
13976;DHT22;7062;49.792;9.946;2024-02-04T10:55:46;9.70;99.90
13976;DHT22;7062;49.792;9.946;2024-02-04T10:58:13;9.70;99.90
13976;DHT22;7062;49.792;9.946;2024-02-04T11:00:40;9.80;99.90
13976;DHT22;7062;49.792;9.946;2024-02-04T11:03:06;9.90;99.90
13976;DHT22;7062;49.792;9.946;2024-02-04T11:05:34;9.90;99.90
13976;DHT22;7062;49.792;9.946;2024-02-04T11:08:04;9.80;99.90
13976;DHT22;7062;49.792;9.946;2024-02-04T11:10:31;9.80;99.90
13976;DHT22;7062;49.792;9.946;2024-02-04T11:12:59;9.80;99.90
13976;DHT22;7062;49.792;9.946;2024-02-04T11:15:29;9.80;99.90
13976;DHT22;7062;49.792;9.946;2024-02-04T11:26:53;9.90;99.90
13976;DHT22;7062;49.792;9.946;2024-02-04T11:29:19;9.80;99.90
13976;DHT22;7062;49.792;9.946;2024-02-04T11:31:44;9.80;99.90
13976;DHT22;7062;49.792;9.946;2024-02-04T11:34:10;9.70;99.90
13976;DHT22;7062;49.792;9.946;2024-02-04T11:36:39;9.70;99.90
13976;DHT22;7062;49.792;9.946;2024-02-04T11:39:12;9.70;99.90
13976;DHT22;7062;49.792;9.946;2024-02-04T11:41:49;9.70;99.90
13976;DHT22;7062;49.792;9.946;2024-02-04T11:44:22;9.70;99.90
13976;DHT22;7062;49.792;9.946;2024-02-04T11:46:49;9.70;99.90
13976;DHT22;7062;49.792;9.946;2024-02-04T11:49:16;9.70;99.90
13976;DHT22;7062;49.792;9.946;2024-02-04T11:51:45;9.60;99.90
13976;DHT22;7062;49.792;9.946;2024-02-04T11:54:11;9.60;99.90
13976;DHT22;7062;49.792;9.946;2024-02-04T11:56:39;9.60;99.90
13976;DHT22;7062;49.792;9.946;2024-02-04T11:59:06;9.60;99.90
13976;DHT22;7062;49.792;9.946;2024-02-04T12:01:33;9.60;99.90
13976;DHT22;7062;49.792;9.946;2024-02-04T12:04:17;9.60;99.90
13976;DHT22;7062;49.792;9.946;2024-02-04T12:06:43;9.60;99.90
13976;DHT22;7062;49.792;9.946;2024-02-04T12:09:09;9.60;99.90
13976;DHT22;7062;49.792;9.946;2024-02-04T12:11:36;9.70;99.90
13976;DHT22;7062;49.792;9.946;2024-02-04T12:14:04;9.70;99.90
13976;DHT22;7062;49.792;9.946;2024-02-04T12:16:31;9.60;99.90
13976;DHT22;7062;49.792;9.946;2024-02-04T12:18:58;9.70;99.90
13976;DHT22;7062;49.792;9.946;2024-02-04T12:21:25;9.70;99.90
13976;DHT22;7062;49.792;9.946;2024-02-04T12:23:51;9.70;99.90
13976;DHT22;7062;49.792;9.946;2024-02-04T12:26:17;9.60;99.90
13976;DHT22;7062;49.792;9.946;2024-02-04T12:31:19;9.70;99.90
13976;DHT22;7062;49.792;9.946;2024-02-04T12:33:55;9.70;99.90
13976;DHT22;7062;49.792;9.946;2024-02-04T12:36:25;9.70;99.90
13976;DHT22;7062;49.792;9.946;2024-02-04T12:39:01;9.80;99.90
13976;DHT22;7062;49.792;9.946;2024-02-04T12:41:28;10.40;99.90
13976;DHT22;7062;49.792;9.946;2024-02-04T12:43:58;9.80;99.90
13976;DHT22;7062;49.792;9.946;2024-02-04T12:46:24;9.80;99.90
13976;DHT22;7062;49.792;9.946;2024-02-04T12:48:54;9.80;99.90
13976;DHT22;7062;49.792;9.946;2024-02-04T12:51:29;9.90;99.90
13976;DHT22;7062;49.792;9.946;2024-02-04T12:54:11;9.90;99.90
13976;DHT22;7062;49.792;9.946;2024-02-04T12:56:45;10.00;99.90
13976;DHT22;7062;49.792;9.946;2024-02-04T12:59:12;10.00;99.90
13976;DHT22;7062;49.792;9.946;2024-02-04T13:01:55;10.00;99.90
13976;DHT22;7062;49.792;9.946;2024-02-04T13:04:21;10.10;99.90
13976;DHT22;7062;49.792;9.946;2024-02-04T13:06:47;10.10;99.90
13976;DHT22;7062;49.792;9.946;2024-02-04T13:09:18;10.10;99.90
13976;DHT22;7062;49.792;9.946;2024-02-04T13:11:44;10.10;99.90
13976;DHT22;7062;49.792;9.946;2024-02-04T13:14:10;10.10;99.90
13976;DHT22;7062;49.792;9.946;2024-02-04T13:16:37;10.10;99.90
13976;DHT22;7062;49.792;9.946;2024-02-04T13:19:03;10.10;99.90
13976;DHT22;7062;49.792;9.946;2024-02-04T13:21:29;10.10;99.90
13976;DHT22;7062;49.792;9.946;2024-02-04T13:23:56;10.10;99.90
13976;DHT22;7062;49.792;9.946;2024-02-04T13:26:21;10.10;99.90
13976;DHT22;7062;49.792;9.946;2024-02-04T13:28:47;10.10;99.90
13976;DHT22;7062;49.792;9.946;2024-02-04T13:31:13;10.10;99.90
13976;DHT22;7062;49.792;9.946;2024-02-04T13:33:39;10.20;99.90
13976;DHT22;7062;49.792;9.946;2024-02-04T13:36:08;10.20;99.90
13976;DHT22;7062;49.792;9.946;2024-02-04T13:38:35;10.30;99.90
13976;DHT22;7062;49.792;9.946;2024-02-04T13:41:01;10.30;99.90
13976;DHT22;7062;49.792;9.946;2024-02-04T13:43:27;10.30;99.90
13976;DHT22;7062;49.792;9.946;2024-02-04T13:45:53;10.30;99.90
13976;DHT22;7062;49.792;9.946;2024-02-04T13:48:19;10.30;99.90
13976;DHT22;7062;49.792;9.946;2024-02-04T13:50:47;10.40;99.90
13976;DHT22;7062;49.792;9.946;2024-02-04T13:53:13;10.40;99.90
13976;DHT22;7062;49.792;9.946;2024-02-04T13:55:39;10.40;99.90
13976;DHT22;7062;49.792;9.946;2024-02-04T13:58:04;10.50;99.90
13976;DHT22;7062;49.792;9.946;2024-02-04T14:00:30;10.50;99.90
13976;DHT22;7062;49.792;9.946;2024-02-04T14:02:56;10.60;99.90
13976;DHT22;7062;49.792;9.946;2024-02-04T14:05:21;10.60;99.90
13976;DHT22;7062;49.792;9.946;2024-02-04T14:07:49;10.70;99.90
13976;DHT22;7062;49.792;9.946;2024-02-04T14:10:14;10.80;99.90
13976;DHT22;7062;49.792;9.946;2024-02-04T14:12:40;10.80;99.90
13976;DHT22;7062;49.792;9.946;2024-02-04T14:15:11;10.80;99.90
13976;DHT22;7062;49.792;9.946;2024-02-04T14:17:37;10.80;99.90
13976;DHT22;7062;49.792;9.946;2024-02-04T14:20:03;10.80;99.90
13976;DHT22;7062;49.792;9.946;2024-02-04T14:22:30;10.80;99.90
13976;DHT22;7062;49.792;9.946;2024-02-04T14:24:56;10.70;99.90
13976;DHT22;7062;49.792;9.946;2024-02-04T14:27:22;10.80;99.90
13976;DHT22;7062;49.792;9.946;2024-02-04T14:29:48;10.70;99.90
13976;DHT22;7062;49.792;9.946;2024-02-04T14:32:14;10.70;99.90
13976;DHT22;7062;49.792;9.946;2024-02-04T14:34:39;10.70;99.90
13976;DHT22;7062;49.792;9.946;2024-02-04T14:37:05;10.70;99.90
13976;DHT22;7062;49.792;9.946;2024-02-04T14:39:31;10.70;99.90
13976;DHT22;7062;49.792;9.946;2024-02-04T14:41:57;10.70;99.90
13976;DHT22;7062;49.792;9.946;2024-02-04T14:44:23;10.70;99.90
13976;DHT22;7062;49.792;9.946;2024-02-04T14:46:49;10.60;99.90
13976;DHT22;7062;49.792;9.946;2024-02-04T14:49:15;10.60;99.90
13976;DHT22;7062;49.792;9.946;2024-02-04T14:51:41;10.70;99.90
13976;DHT22;7062;49.792;9.946;2024-02-04T14:54:07;10.70;99.90
13976;DHT22;7062;49.792;9.946;2024-02-04T14:56:40;10.70;99.90
13976;DHT22;7062;49.792;9.946;2024-02-04T14:59:08;10.70;99.90
13976;DHT22;7062;49.792;9.946;2024-02-04T15:01:33;10.70;99.90
13976;DHT22;7062;49.792;9.946;2024-02-04T15:04:00;10.80;99.90
13976;DHT22;7062;49.792;9.946;2024-02-04T15:06:26;10.80;99.90
13976;DHT22;7062;49.792;9.946;2024-02-04T15:08:52;10.80;99.90
13976;DHT22;7062;49.792;9.946;2024-02-04T15:11:18;10.80;99.90
13976;DHT22;7062;49.792;9.946;2024-02-04T15:13:44;10.80;99.90
13976;DHT22;7062;49.792;9.946;2024-02-04T15:16:11;10.80;99.90
13976;DHT22;7062;49.792;9.946;2024-02-04T15:18:38;10.80;99.90
13976;DHT22;7062;49.792;9.946;2024-02-04T15:21:04;10.80;99.90
13976;DHT22;7062;49.792;9.946;2024-02-04T15:23:30;10.80;99.90
13976;DHT22;7062;49.792;9.946;2024-02-04T15:25:56;10.80;99.90
13976;DHT22;7062;49.792;9.946;2024-02-04T15:28:23;10.80;99.90
13976;DHT22;7062;49.792;9.946;2024-02-04T15:30:50;10.80;99.90
13976;DHT22;7062;49.792;9.946;2024-02-04T15:33:16;10.80;99.90
13976;DHT22;7062;49.792;9.946;2024-02-04T15:35:42;10.70;99.90
13976;DHT22;7062;49.792;9.946;2024-02-04T15:38:07;10.70;99.90
13976;DHT22;7062;49.792;9.946;2024-02-04T15:40:33;10.80;99.90
13976;DHT22;7062;49.792;9.946;2024-02-04T15:42:59;10.70;99.90
13976;DHT22;7062;49.792;9.946;2024-02-04T15:45:26;10.70;99.90
13976;DHT22;7062;49.792;9.946;2024-02-04T15:47:52;10.70;99.90
13976;DHT22;7062;49.792;9.946;2024-02-04T15:50:20;10.70;99.90
13976;DHT22;7062;49.792;9.946;2024-02-04T15:52:47;10.70;99.90
13976;DHT22;7062;49.792;9.946;2024-02-04T15:55:15;10.70;99.90
13976;DHT22;7062;49.792;9.946;2024-02-04T15:57:48;10.80;99.90
13976;DHT22;7062;49.792;9.946;2024-02-04T16:00:15;10.70;99.90
13976;DHT22;7062;49.792;9.946;2024-02-04T16:02:51;10.70;99.90
13976;DHT22;7062;49.792;9.946;2024-02-04T16:05:18;10.70;99.90
13976;DHT22;7062;49.792;9.946;2024-02-04T16:07:44;10.60;99.90
13976;DHT22;7062;49.792;9.946;2024-02-04T16:10:12;10.70;99.90